Main page
METAR-TAF:

METAR-TAF

Airports :

Allama Iqbal International Airport

Lahore, Pakistan

latitude: 31-31N, longitude: 074-24E, elevation: 216 m

Current weather observation

The report was made 23 minutes ago, at 20:59 UTC
Wind 3 kt from the East
Temperature 25°C
Humidity 79%
Pressure 1008 hPa
Visibility: 4000 m
smoke

METAR: OPLA 202059Z 09003KT 4000 FU NSC 25/21 Q1008 NOSIG RMK QFE982 RMK A29.77

Time: 02:22 (21:22 UTC)

Forecast

The report was made 5 hours and 37 minutes ago, at 15:45 UTC
Forecast valid from 20 at 18 UTC to 21 at 24 UTC
Wind 5 kt from the South/Southeast
Visibility: 4000 m
smoke
Becoming
from 21 at 00 UTC to 21 at 04 UTC
Wind 3 kt from the Northeast
From 21 at 0400 UTC
Wind 8 kt from the South/Southeast
Visibility: 5000 m
smoke
From 21 at 1500 UTC
Wind 3 kt from the Southeast
Visibility: 4000 m
Scattered clouds at a height of 10000 ft
smoke

TAF: OPLA 201545Z 2018/2124 15005KT 4000 FU NSC TX36/2110Z TN23/2100Z BECMG 2100/2104 05003KT 3000BR FM210400 16008KT 5000 FU NSC FM211500 13003KT 4000 FU SCT100

Weather observations and forecasts of more than 4000 airports (METAR and TAF reports).

The available stations are represented by yellow and red dots on the map.

Hover mouse over dot to see the name of the station.

Then click to see weather observations and forecasts.

To change the map : click on the green buttons with a black cross to zoom in, on the green button with a dash to zoom out, or on the green arrows for adjacent maps.


METAR-TAF: